createdAt,value
2018-09-11T11:37:42.013Z,0.45
2018-09-11T11:47:42.270Z,0.42
2018-09-11T11:57:42.325Z,0.41
2018-09-11T12:07:42.072Z,0.38
2018-09-11T12:17:42.163Z,0.56
2018-09-11T12:27:42.111Z,0.51
2018-09-11T12:37:42.126Z,0.50
2018-09-11T12:47:42.819Z,0.37
2018-09-11T12:57:42.032Z,0.63
2018-09-11T13:07:42.432Z,0.41
2018-09-11T13:27:49.192Z,0.38
2018-09-11T13:37:48.199Z,0.50
2018-09-11T13:47:48.386Z,0.35
2018-09-11T13:57:48.098Z,0.46
2018-09-11T14:07:48.176Z,0.53
2018-09-11T14:17:48.250Z,0.51
2018-09-11T14:37:08.631Z,0.58
2018-09-11T14:47:08.187Z,0.67
2018-09-11T15:10:03.044Z,1.57
2018-09-11T15:20:02.973Z,2.16
2018-09-11T15:30:03.106Z,1.96
2018-09-11T15:40:03.073Z,2.15
2018-09-11T15:50:03.070Z,2.11
2018-09-11T16:00:03.144Z,2.23
2018-09-11T16:10:03.049Z,2.07
2018-09-11T16:20:03.305Z,1.95
2018-09-11T16:30:04.225Z,1.56
2018-09-11T16:40:03.259Z,1.94
2018-09-11T16:50:03.120Z,1.83
2018-09-11T17:00:03.117Z,1.82
2018-09-11T17:10:03.067Z,1.23
2018-09-11T17:20:03.173Z,0.87
2018-09-11T17:30:03.109Z,0.74
2018-09-11T17:40:03.084Z,0.52
2018-09-11T17:50:03.182Z,0.54
2018-09-11T18:00:03.400Z,0.37
2018-09-11T18:10:03.122Z,0.32
2018-09-11T18:20:03.221Z,0.39
2018-09-11T18:30:03.202Z,0.52
2018-09-11T18:40:04.679Z,0.50
2018-09-11T18:50:03.738Z,0.41
2018-09-11T19:00:03.203Z,0.44
2018-09-11T19:10:03.148Z,0.54
2018-09-11T19:20:03.252Z,0.85
2018-09-11T19:30:03.161Z,0.67
2018-09-11T19:40:03.803Z,0.73
2018-09-11T19:50:03.197Z,0.90
2018-09-11T20:00:03.272Z,0.92
2018-09-11T20:10:03.474Z,0.61
2018-09-11T20:20:03.298Z,0.52
2018-09-11T20:30:03.174Z,0.26
2018-09-11T20:40:03.399Z,0.68
2018-09-11T20:50:03.160Z,0.32
2018-09-11T21:00:03.573Z,0.40
2018-09-11T21:10:03.227Z,0.06
2018-09-11T21:20:03.169Z,0.14
2018-09-11T21:30:03.077Z,0.36
2018-09-11T21:40:03.203Z,0.08
2018-09-11T21:50:03.123Z,0.05
2018-09-11T22:00:03.573Z,0.09
2018-09-11T22:10:03.366Z,0.04
2018-09-11T22:20:03.345Z,0.00
2018-09-11T22:30:03.758Z,0.00
2018-09-11T22:40:03.891Z,0.03
2018-09-11T22:50:03.748Z,0.10
2018-09-11T23:00:03.903Z,0.21
2018-09-11T23:10:04.311Z,0.09
2018-09-11T23:20:04.778Z,0.00
2018-09-11T23:30:04.497Z,0.00
2018-09-11T23:40:04.448Z,0.01
2018-09-11T23:50:04.973Z,0.01
